Time;durP1;ratioP1;P1;durP2;ratioP2;P2;SDS_P1;SDS_P2;PMS_P1;PMS_P2;Temp;Humidity;BMP_temperature;BMP_pressure;BME280_temperature;BME280_humidity;BME280_pressure;Samples;Min_cycle;Max_cycle;Signal;HPM_P1;HPM_P2
2022/11/23 00:01:35;;;;;;;0.00;0.00;;;8.70;99.90;;;;;;5022483;28;20045;-68
2022/11/23 00:04:06;;;;;;;0.00;0.00;;;8.80;99.90;;;;;;5016842;28;20137;-66
2022/11/23 00:06:33;;;;;;;0.00;0.00;;;8.70;99.90;;;;;;5028547;28;20022;-67
2022/11/23 00:08:59;;;;;;;0.00;0.00;;;8.70;99.90;;;;;;5015170;28;20030;-67
2022/11/23 00:11:26;;;;;;;0.00;0.00;;;8.70;99.90;;;;;;5022084;28;20360;-67
2022/11/23 00:13:52;;;;;;;0.00;0.00;;;8.70;99.90;;;;;;5015255;28;20125;-67
2022/11/23 00:16:21;;;;;;;0.00;0.00;;;8.60;99.90;;;;;;5022932;28;20104;-66
2022/11/23 00:18:47;;;;;;;0.00;0.00;;;8.60;99.90;;;;;;5014323;28;20165;-67
2022/11/23 00:21:17;;;;;;;0.00;0.00;;;8.60;99.90;;;;;;5022957;28;20068;-67
2022/11/23 00:23:43;;;;;;;0.00;0.00;;;8.50;99.90;;;;;;5023334;28;20040;-66
2022/11/23 00:26:10;;;;;;;0.00;0.00;;;8.60;99.90;;;;;;5018745;28;20087;-67
2022/11/23 00:28:38;;;;;;;0.00;0.00;;;8.60;99.90;;;;;;5017052;28;20072;-67
2022/11/23 00:31:05;;;;;;;0.00;0.00;;;8.50;99.90;;;;;;5014039;28;20065;-67
2022/11/23 00:33:31;;;;;;;0.00;0.00;;;8.40;99.90;;;;;;5020499;28;20025;-66
2022/11/23 00:36:02;;;;;;;0.00;0.00;;;8.40;99.90;;;;;;5033221;28;20040;-65
2022/11/23 00:38:28;;;;;;;0.00;0.00;;;8.30;99.90;;;;;;5032626;28;20037;-67
2022/11/23 00:41:06;;;;;;;0.00;0.00;;;8.20;99.90;;;;;;5034804;28;20041;-66
2022/11/23 00:43:33;;;;;;;0.00;0.00;;;8.30;99.90;;;;;;5027494;28;20065;-67
2022/11/23 00:46:15;;;;;;;0.00;0.00;;;8.30;99.90;;;;;;5016955;28;20431;-66
2022/11/23 00:48:45;;;;;;;0.00;0.00;;;8.20;99.90;;;;;;5018364;28;20478;-67
2022/11/23 00:51:14;;;;;;;0.00;0.00;;;8.10;99.90;;;;;;5011158;28;20018;-67
2022/11/23 00:53:40;;;;;;;0.00;0.00;;;8.10;99.90;;;;;;5011188;28;20033;-67
2022/11/23 00:56:06;;;;;;;;;;;8.00;99.90;;;;;;5011059;28;20104;-67
2022/11/23 00:58:32;;;;;;;0.00;0.00;;;7.90;99.90;;;;;;5022119;28;20115;-67
2022/11/23 01:01:01;;;;;;;0.00;0.00;;;7.80;99.90;;;;;;5013141;28;20046;-68
2022/11/23 01:03:28;;;;;;;0.00;0.00;;;7.80;99.90;;;;;;5015773;28;20052;-67
2022/11/23 01:05:53;;;;;;;0.00;0.00;;;7.70;99.90;;;;;;5015121;28;21823;-66
2022/11/23 01:08:19;;;;;;;0.00;0.00;;;7.70;99.90;;;;;;5013832;28;20038;-66
2022/11/23 01:10:44;;;;;;;0.00;0.00;;;7.70;99.90;;;;;;5014927;28;20499;-67
2022/11/23 01:13:10;;;;;;;0.00;0.00;;;7.70;99.90;;;;;;5013201;28;20093;-67
2022/11/23 01:15:36;;;;;;;0.00;0.00;;;7.60;99.90;;;;;;5028684;28;20053;-67
2022/11/23 01:18:01;;;;;;;0.00;0.00;;;7.50;99.90;;;;;;5030071;28;20116;-67
2022/11/23 01:20:27;;;;;;;0.00;0.00;;;7.50;99.90;;;;;;5024320;28;20095;-66
2022/11/23 01:22:53;;;;;;;0.00;0.00;;;7.50;99.90;;;;;;5019582;28;20044;-66
2022/11/23 01:25:18;;;;;;;0.00;0.00;;;7.50;99.90;;;;;;5016844;28;20117;-66
2022/11/23 01:27:44;;;;;;;0.00;0.00;;;7.50;99.90;;;;;;5040398;28;20025;-68
2022/11/23 01:30:10;;;;;;;0.00;0.00;;;7.50;99.90;;;;;;5024283;28;20041;-67
2022/11/23 01:32:36;;;;;;;0.00;0.00;;;7.50;99.90;;;;;;5026901;28;20064;-67
2022/11/23 01:35:02;;;;;;;0.00;0.00;;;7.40;99.90;;;;;;5015582;28;20057;-67
2022/11/23 01:37:27;;;;;;;0.00;0.00;;;7.40;99.90;;;;;;5013631;28;20093;-66
2022/11/23 01:39:53;;;;;;;0.00;0.00;;;7.40;99.90;;;;;;5022838;28;20273;-68
2022/11/23 01:42:18;;;;;;;0.00;0.00;;;7.40;99.90;;;;;;5019587;28;20492;-66
2022/11/23 01:44:44;;;;;;;0.00;0.00;;;7.40;99.90;;;;;;5013928;28;20032;-67
2022/11/23 01:47:10;;;;;;;0.00;0.00;;;7.40;99.90;;;;;;5022736;28;20487;-67
2022/11/23 01:49:42;;;;;;;0.00;0.00;;;7.30;99.90;;;;;;5023709;28;20047;-67
2022/11/23 01:52:19;;;;;;;0.00;0.00;;;7.30;99.90;;;;;;5018645;28;20038;-67
2022/11/23 01:54:54;;;;;;;0.00;0.00;;;7.40;99.90;;;;;;5014600;28;20034;-66
2022/11/23 01:57:38;;;;;;;0.00;0.00;;;7.40;99.90;;;;;;5005016;28;20109;-67
2022/11/23 02:00:04;;;;;;;0.00;0.00;;;7.50;99.90;;;;;;5012174;28;20391;-66
2022/11/23 02:02:31;;;;;;;0.00;0.00;;;7.40;99.90;;;;;;5029901;28;20037;-67
2022/11/23 02:04:59;;;;;;;0.00;0.00;;;7.30;99.90;;;;;;5016821;28;20378;-66
2022/11/23 02:07:25;;;;;;;0.00;0.00;;;7.30;99.90;;;;;;5010302;28;20114;-66
2022/11/23 02:09:51;;;;;;;0.00;0.00;;;7.10;99.90;;;;;;5012329;28;20112;-66
2022/11/23 02:12:17;;;;;;;0.00;0.00;;;7.10;99.90;;;;;;5009426;28;20080;-67
2022/11/23 02:14:44;;;;;;;0.00;0.00;;;7.00;99.90;;;;;;5018667;28;20058;-67
2022/11/23 02:17:10;;;;;;;0.00;0.00;;;6.90;99.90;;;;;;5016640;28;20420;-66
2022/11/23 02:19:47;;;;;;;0.00;0.00;;;6.90;99.90;;;;;;5024340;28;20034;-66
2022/11/23 02:22:44;;;;;;;0.00;0.00;;;6.90;99.90;;;;;;5026706;28;20484;-67
2022/11/23 02:25:24;;;;;;;0.00;0.00;;;6.70;99.90;;;;;;5012198;28;20100;-67
2022/11/23 02:27:51;;;;;;;0.00;0.00;;;6.60;99.90;;;;;;5008282;28;20029;-67
2022/11/23 02:30:17;;;;;;;;;;;6.60;99.90;;;;;;5015051;28;20026;-66
2022/11/23 02:32:43;;;;;;;0.00;0.00;;;6.60;99.90;;;;;;5021653;28;20256;-67
2022/11/23 02:35:09;;;;;;;;;;;6.50;99.90;;;;;;5025563;28;20057;-66
2022/11/23 02:37:36;;;;;;;0.00;0.00;;;6.50;99.90;;;;;;5030685;28;19909;-66
2022/11/23 02:40:03;;;;;;;;;;;6.50;99.90;;;;;;5032389;28;20045;-67
2022/11/23 02:42:30;;;;;;;0.00;0.00;;;6.40;99.90;;;;;;5029839;28;20434;-66
2022/11/23 02:45:22;;;;;;;0.00;0.00;;;6.40;99.90;;;;;;5013139;28;20128;-67
2022/11/23 02:47:48;;;;;;;0.00;0.00;;;6.30;99.90;;;;;;5020261;28;20486;-67
2022/11/23 02:50:14;;;;;;;0.00;0.00;;;6.50;99.90;;;;;;5005295;28;20025;-67
2022/11/23 02:52:40;;;;;;;0.00;0.00;;;6.70;99.90;;;;;;5016027;28;20096;-66
2022/11/23 02:55:06;;;;;;;0.00;0.00;;;6.90;99.90;;;;;;5016189;28;20025;-66
2022/11/23 02:57:31;;;;;;;0.00;0.00;;;6.90;99.90;;;;;;5012134;28;20442;-67
2022/11/23 02:59:57;;;;;;;0.00;0.00;;;7.00;99.90;;;;;;5005668;28;20030;-67
2022/11/23 03:02:23;;;;;;;0.00;0.00;;;7.10;99.90;;;;;;5002762;28;20345;-67
2022/11/23 03:04:48;;;;;;;0.00;0.00;;;7.40;99.90;;;;;;5003816;28;20061;-67
2022/11/23 03:07:14;;;;;;;0.00;0.00;;;7.20;99.90;;;;;;5008045;28;20061;-67
2022/11/23 03:09:40;;;;;;;0.00;0.00;;;7.10;99.90;;;;;;5010983;28;20037;-67
2022/11/23 03:12:05;;;;;;;0.00;0.00;;;7.20;99.90;;;;;;5004774;28;20491;-67
2022/11/23 03:14:31;;;;;;;0.00;0.00;;;7.30;99.90;;;;;;5011093;28;20034;-66
2022/11/23 03:16:57;;;;;;;0.00;0.00;;;7.40;99.90;;;;;;5002964;28;20480;-67
2022/11/23 03:19:23;;;;;;;;;;;7.50;99.90;;;;;;5024220;28;20159;-67
2022/11/23 03:21:48;;;;;;;0.00;0.00;;;7.50;99.90;;;;;;5007509;28;19999;-67
2022/11/23 03:24:15;;;;;;;0.00;0.00;;;7.60;99.90;;;;;;5007336;28;20045;-66
2022/11/23 03:26:40;;;;;;;0.00;0.00;;;7.60;99.90;;;;;;5010883;28;20037;-66
2022/11/23 03:29:06;;;;;;;0.00;0.00;;;7.70;99.90;;;;;;5009466;28;20472;-66
2022/11/23 03:31:31;;;;;;;0.00;0.00;;;7.70;99.90;;;;;;5005337;28;20045;-66
2022/11/23 03:33:57;;;;;;;0.00;0.00;;;7.80;99.90;;;;;;5009554;28;20119;-66
2022/11/23 03:36:23;;;;;;;0.00;0.00;;;8.00;99.90;;;;;;5011237;28;20067;-66
2022/11/23 03:38:48;;;;;;;0.00;0.00;;;8.00;99.90;;;;;;5011178;28;20505;-66
2022/11/23 03:41:14;;;;;;;0.00;0.00;;;8.20;99.90;;;;;;5011488;28;20038;-66
2022/11/23 03:43:39;;;;;;;0.00;0.00;;;8.20;99.90;;;;;;5012238;28;20044;-67
2022/11/23 03:46:05;;;;;;;0.00;0.00;;;8.20;99.90;;;;;;5011427;28;20037;-66
2022/11/23 03:48:30;;;;;;;0.00;0.00;;;8.20;99.90;;;;;;5014702;28;20030;-67
2022/11/23 03:50:56;;;;;;;0.00;0.00;;;8.20;99.90;;;;;;5013931;28;20053;-67
2022/11/23 03:53:22;;;;;;;0.00;0.00;;;8.20;99.90;;;;;;5008778;28;20030;-67
2022/11/23 03:55:47;;;;;;;0.00;0.00;;;8.30;99.90;;;;;;5012036;28;20037;-67
2022/11/23 03:58:13;;;;;;;0.00;0.00;;;8.40;99.90;;;;;;5012883;28;20026;-68
2022/11/23 04:00:39;;;;;;;;;;;8.40;99.90;;;;;;5002131;28;20073;-66
2022/11/23 04:03:05;;;;;;;0.00;0.00;;;8.40;99.90;;;;;;5014039;28;19957;-67
2022/11/23 04:05:30;;;;;;;0.00;0.00;;;8.40;99.90;;;;;;5007859;28;20045;-67
2022/11/23 04:07:56;;;;;;;0.00;0.00;;;8.40;99.90;;;;;;5014371;28;20026;-66
2022/11/23 04:10:21;;;;;;;0.00;0.00;;;8.60;99.90;;;;;;5009536;28;20033;-67
2022/11/23 04:12:51;;;;;;;0.00;0.00;;;8.70;99.90;;;;;;5009873;28;20038;-66
2022/11/23 04:15:17;;;;;;;0.00;0.00;;;8.90;99.90;;;;;;5008942;28;20565;-66
2022/11/23 04:17:43;;;;;;;0.00;0.00;;;9.00;99.90;;;;;;5027100;28;20034;-67
2022/11/23 04:20:09;;;;;;;0.00;0.00;;;9.00;99.90;;;;;;5022372;28;20038;-66
2022/11/23 04:22:35;;;;;;;0.00;0.00;;;9.10;99.90;;;;;;5017337;28;20030;-66
2022/11/23 04:25:00;;;;;;;0.00;0.00;;;9.20;99.90;;;;;;5028507;28;20030;-66
2022/11/23 04:27:26;;;;;;;0.00;0.00;;;9.30;99.90;;;;;;5020318;28;20033;-66
2022/11/23 04:29:51;;;;;;;0.00;0.00;;;9.40;99.90;;;;;;5017663;28;20026;-66
2022/11/23 04:32:17;;;;;;;0.00;0.00;;;9.50;99.90;;;;;;5029768;28;20029;-67
2022/11/23 04:34:43;;;;;;;0.00;0.00;;;9.50;99.90;;;;;;5033044;28;20025;-66
2022/11/23 04:37:08;;;;;;;0.00;0.00;;;9.60;99.90;;;;;;5025875;28;20026;-67
2022/11/23 04:39:34;;;;;;;0.00;0.00;;;9.60;99.90;;;;;;5032756;28;20065;-67
2022/11/23 04:42:00;;;;;;;0.00;0.00;;;9.60;99.90;;;;;;5023504;28;20462;-66
2022/11/23 04:44:25;;;;;;;0.00;0.00;;;9.70;99.90;;;;;;5016545;28;20046;-67
2022/11/23 04:46:51;;;;;;;0.00;0.00;;;9.70;99.90;;;;;;5017801;28;20033;-66
2022/11/23 04:49:17;;;;;;;0.00;0.00;;;9.80;99.90;;;;;;5025971;28;20092;-66
2022/11/23 04:51:43;;;;;;;0.00;0.00;;;9.90;99.90;;;;;;5019880;28;20061;-67
2022/11/23 04:54:09;;;;;;;0.00;0.00;;;9.90;99.90;;;;;;5017085;28;20057;-67
2022/11/23 04:56:34;;;;;;;0.00;0.00;;;10.00;99.90;;;;;;5025370;28;20071;-66
2022/11/23 04:59:00;;;;;;;0.00;0.00;;;10.00;99.90;;;;;;5028229;28;20508;-67
2022/11/23 05:01:26;;;;;;;0.00;0.00;;;10.00;99.90;;;;;;5013367;28;20030;-66
2022/11/23 05:03:51;;;;;;;0.00;0.00;;;9.90;99.90;;;;;;5009271;28;20034;-66
2022/11/23 05:06:17;;;;;;;0.00;0.00;;;10.00;99.90;;;;;;5012597;28;20391;-67
2022/11/23 05:08:43;;;;;;;0.00;0.00;;;9.90;99.90;;;;;;5020800;28;20034;-67
2022/11/23 05:11:08;;;;;;;0.00;0.00;;;9.90;99.90;;;;;;5010868;28;20018;-67
2022/11/23 05:13:34;;;;;;;0.00;0.00;;;9.90;99.90;;;;;;5007071;28;20029;-67
2022/11/23 05:15:59;;;;;;;0.00;0.00;;;9.90;99.90;;;;;;5014336;28;20079;-66
2022/11/23 05:18:25;;;;;;;0.00;0.00;;;10.00;99.90;;;;;;5008547;28;20081;-66
2022/11/23 05:20:51;;;;;;;0.00;0.00;;;9.90;99.90;;;;;;5009406;28;20033;-66
2022/11/23 05:23:17;;;;;;;0.00;0.00;;;10.00;99.90;;;;;;5017210;28;20472;-66
2022/11/23 05:25:42;;;;;;;0.00;0.00;;;10.00;99.90;;;;;;5018964;28;20037;-66
2022/11/23 05:28:17;;;;;;;0.00;0.00;;;10.00;99.90;;;;;;5023049;28;20041;-66
2022/11/23 05:30:43;;;;;;;0.00;0.00;;;10.00;99.90;;;;;;5022708;28;20065;-67
2022/11/23 05:33:09;;;;;;;0.00;0.00;;;10.00;99.90;;;;;;5016048;28;20041;-66
2022/11/23 05:35:35;;;;;;;0.00;0.00;;;10.00;99.90;;;;;;5015285;28;20036;-66
2022/11/23 05:38:01;;;;;;;0.00;0.00;;;10.00;99.90;;;;;;5024381;28;20507;-66
2022/11/23 05:40:26;;;;;;;0.00;0.00;;;10.00;99.90;;;;;;5019205;28;20472;-66
2022/11/23 05:42:58;;;;;;;0.00;0.00;;;10.00;99.90;;;;;;5015998;28;20034;-66
2022/11/23 05:45:25;;;;;;;0.00;0.00;;;10.10;99.90;;;;;;5029564;28;20510;-67
2022/11/23 05:47:52;;;;;;;0.00;0.00;;;10.10;99.90;;;;;;5021287;28;20029;-67
2022/11/23 05:50:19;;;;;;;0.00;0.00;;;10.10;99.90;;;;;;5024137;28;20029;-67
2022/11/23 05:52:44;;;;;;;0.00;0.00;;;10.10;99.90;;;;;;5016496;28;20057;-66
2022/11/23 05:55:11;;;;;;;0.00;0.00;;;10.20;99.90;;;;;;5011954;28;20030;-67
2022/11/23 05:57:36;;;;;;;;;;;10.20;99.90;;;;;;5025174;28;20037;-66
2022/11/23 06:00:04;;;;;;;0.00;0.00;;;10.10;99.90;;;;;;5032108;28;19933;-66
2022/11/23 06:02:29;;;;;;;0.00;0.00;;;10.20;99.90;;;;;;5012005;28;20030;-66
2022/11/23 06:04:55;;;;;;;0.00;0.00;;;10.30;99.90;;;;;;5025463;28;20119;-66
2022/11/23 06:07:21;;;;;;;0.00;0.00;;;10.30;99.90;;;;;;5029569;28;20484;-67
2022/11/23 06:09:46;;;;;;;0.00;0.00;;;10.40;99.90;;;;;;5025386;28;20053;-66
2022/11/23 06:12:12;;;;;;;0.00;0.00;;;10.40;99.90;;;;;;5024142;28;20030;-66
2022/11/23 06:14:37;;;;;;;0.00;0.00;;;10.40;99.90;;;;;;5024039;28;20033;-66
2022/11/23 06:17:03;;;;;;;0.00;0.00;;;10.40;99.90;;;;;;5020430;28;20034;-66
2022/11/23 06:19:29;;;;;;;0.00;0.00;;;10.50;99.90;;;;;;5012767;28;20436;-67
2022/11/23 06:21:56;;;;;;;0.00;0.00;;;10.50;99.90;;;;;;5024375;28;20106;-67
2022/11/23 06:24:23;;;;;;;0.00;0.00;;;10.60;99.90;;;;;;5038177;28;20030;-67
2022/11/23 06:26:53;;;;;;;0.00;0.00;;;10.60;99.90;;;;;;5032211;28;20032;-67
2022/11/23 06:29:19;;;;;;;0.00;0.00;;;10.50;99.90;;;;;;5015401;28;20030;-67
2022/11/23 06:31:45;;;;;;;0.00;0.00;;;10.50;99.90;;;;;;5016460;28;20573;-67
2022/11/23 06:34:11;;;;;;;;;;;10.50;99.90;;;;;;5011681;28;20045;-67
2022/11/23 06:36:37;;;;;;;0.00;0.00;;;10.60;99.90;;;;;;5018977;28;20319;-66
2022/11/23 06:39:03;;;;;;;0.00;0.00;;;10.80;99.90;;;;;;5019946;28;20400;-67
2022/11/23 06:41:29;;;;;;;0.00;0.00;;;10.80;99.90;;;;;;5014902;28;20041;-66
2022/11/23 06:43:55;;;;;;;0.00;0.00;;;10.80;99.90;;;;;;5023914;28;20030;-66
2022/11/23 06:46:20;;;;;;;0.00;0.00;;;10.80;99.90;;;;;;5021850;28;20040;-67
2022/11/23 06:48:46;;;;;;;0.00;0.00;;;10.90;99.90;;;;;;5012897;28;20536;-67
2022/11/23 06:51:13;;;;;;;0.00;0.00;;;11.00;99.90;;;;;;5022688;28;20120;-66
2022/11/23 06:53:39;;;;;;;0.00;0.00;;;10.90;99.90;;;;;;5019522;28;20029;-66
2022/11/23 06:56:05;;;;;;;0.00;0.00;;;11.00;99.90;;;;;;5021687;28;20079;-65
2022/11/23 06:58:31;;;;;;;0.00;0.00;;;11.10;99.90;;;;;;5021607;28;20380;-67
2022/11/23 07:01:00;;;;;;;0.00;0.00;;;11.10;99.90;;;;;;5015293;28;20057;-66
2022/11/23 07:03:27;;;;;;;0.00;0.00;;;11.10;99.90;;;;;;5010664;28;20036;-67
2022/11/23 07:05:52;;;;;;;;;;;11.00;99.90;;;;;;5004978;28;20030;-66
2022/11/23 07:08:18;;;;;;;0.00;0.00;;;11.10;99.90;;;;;;5007379;28;19972;-66
2022/11/23 07:10:44;;;;;;;0.00;0.00;;;11.10;99.90;;;;;;5006792;28;20025;-66
2022/11/23 07:13:10;;;;;;;0.00;0.00;;;11.10;99.90;;;;;;5011061;28;20279;-66
2022/11/23 07:15:37;;;;;;;0.00;0.00;;;11.10;99.90;;;;;;5021277;28;20049;-66
2022/11/23 07:18:04;;;;;;;0.00;0.00;;;11.00;99.90;;;;;;5022379;28;20063;-66
2022/11/23 07:20:29;;;;;;;0.00;0.00;;;11.00;99.90;;;;;;5035545;28;20046;-66
2022/11/23 07:23:05;;;;;;;0.00;0.00;;;11.00;99.90;;;;;;5003102;28;20476;-66
2022/11/23 07:25:32;;;;;;;0.00;0.00;;;10.90;99.90;;;;;;5006985;28;20044;-67
2022/11/23 07:27:59;;;;;;;0.00;0.00;;;10.80;99.90;;;;;;5008004;28;20113;-66
2022/11/23 07:30:28;;;;;;;0.00;0.00;;;10.80;99.90;;;;;;5002286;28;20129;-66
2022/11/23 07:33:07;;;;;;;0.00;0.00;;;10.90;99.90;;;;;;5002731;28;20030;-67
2022/11/23 07:35:33;;;;;;;0.00;0.00;;;10.90;99.90;;;;;;5003575;28;20072;-67
2022/11/23 07:37:59;;;;;;;;;;;10.80;99.90;;;;;;5003018;28;20034;-66
2022/11/23 07:40:25;;;;;;;0.00;0.00;;;10.80;99.90;;;;;;5002177;28;20276;-67
2022/11/23 07:42:51;;;;;;;;;;;10.80;99.90;;;;;;5003948;28;20022;-67
2022/11/23 07:45:16;;;;;;;0.00;0.00;;;10.70;99.90;;;;;;5004065;28;20390;-67
2022/11/23 07:47:42;;;;;;;0.00;0.00;;;10.70;99.90;;;;;;5004051;28;20424;-67
2022/11/23 07:50:10;;;;;;;0.00;0.00;;;10.70;99.90;;;;;;5004774;28;20454;-67
2022/11/23 07:52:36;;;;;;;0.00;0.00;;;10.70;99.90;;;;;;5003957;28;20030;-67
2022/11/23 07:55:01;;;;;;;;;;;10.70;99.90;;;;;;5015586;28;20061;-67
2022/11/23 07:57:27;;;;;;;0.00;0.00;;;10.60;99.90;;;;;;5008233;28;19952;-67
2022/11/23 07:59:53;;;;;;;0.00;0.00;;;10.40;99.90;;;;;;5008460;28;20752;-67
2022/11/23 08:02:19;;;;;;;0.00;0.00;;;10.20;99.90;;;;;;5009425;28;20399;-69
2022/11/23 08:04:46;;;;;;;0.00;0.00;;;10.10;99.90;;;;;;5007827;28;20044;-65
2022/11/23 08:07:11;;;;;;;0.00;0.00;;;9.90;99.90;;;;;;5009639;28;20120;-68
2022/11/23 08:09:37;;;;;;;0.00;0.00;;;9.80;99.90;;;;;;5011153;28;20526;-68
2022/11/23 08:12:04;;;;;;;0.00;0.00;;;9.80;99.90;;;;;;5008488;28;20021;-68
2022/11/23 08:14:29;;;;;;;0.00;0.00;;;9.70;99.90;;;;;;5008131;28;20046;-68
2022/11/23 08:16:55;;;;;;;0.00;0.00;;;9.80;99.90;;;;;;5004804;28;20517;-68
2022/11/23 08:19:21;;;;;;;0.00;0.00;;;9.80;99.90;;;;;;5018939;28;20049;-67
2022/11/23 08:21:46;;;;;;;0.00;0.00;;;9.90;99.90;;;;;;5006463;28;20037;-68
2022/11/23 08:24:13;;;;;;;0.00;0.00;;;9.90;99.90;;;;;;5008134;28;20030;-69
2022/11/23 08:26:39;;;;;;;0.00;0.00;;;9.90;99.90;;;;;;5008678;28;20034;-72
2022/11/23 08:29:05;;;;;;;0.00;0.00;;;9.90;99.90;;;;;;5007482;28;20045;-69
2022/11/23 08:31:31;;;;;;;0.00;0.00;;;10.00;99.90;;;;;;5004727;28;20064;-69
2022/11/23 08:33:57;;;;;;;;;;;10.00;99.90;;;;;;5009749;28;20026;-68
2022/11/23 08:36:23;;;;;;;0.00;0.00;;;10.10;99.90;;;;;;5007004;28;19981;-69
2022/11/23 08:38:51;;;;;;;0.00;0.00;;;10.10;99.90;;;;;;5022769;28;20026;-69
2022/11/23 08:41:20;;;;;;;0.00;0.00;;;10.10;99.90;;;;;;5007296;28;20124;-69
2022/11/23 08:43:52;;;;;;;0.00;0.00;;;10.10;99.90;;;;;;5006133;28;20026;-70
2022/11/23 08:46:18;;;;;;;0.00;0.00;;;10.10;99.90;;;;;;5004313;28;20052;-69
2022/11/23 08:48:47;;;;;;;0.00;0.00;;;10.20;99.90;;;;;;5005850;28;20468;-69
2022/11/23 08:51:21;;;;;;;0.00;0.00;;;10.10;99.90;;;;;;5006062;28;20511;-70
2022/11/23 08:53:50;;;;;;;0.00;0.00;;;10.00;99.90;;;;;;5004905;28;20034;-68
2022/11/23 08:56:19;;;;;;;0.00;0.00;;;9.80;99.90;;;;;;5021761;28;20026;-69
2022/11/23 08:58:45;;;;;;;0.00;0.00;;;9.70;99.90;;;;;;5004583;28;20459;-69
2022/11/23 09:01:12;;;;;;;;;;;9.70;99.90;;;;;;5000467;28;20113;-69
2022/11/23 09:03:40;;;;;;;0.00;0.00;;;9.70;99.90;;;;;;5004583;28;20343;-68
2022/11/23 09:06:06;;;;;;;0.00;0.00;;;9.70;99.90;;;;;;5010129;28;20034;-69
2022/11/23 09:08:32;;;;;;;0.00;0.00;;;9.80;99.90;;;;;;5008933;28;20037;-68
2022/11/23 09:11:08;;;;;;;0.00;0.00;;;9.90;99.90;;;;;;5004575;28;20044;-69
2022/11/23 09:13:36;;;;;;;0.00;0.00;;;9.90;99.90;;;;;;5009457;28;20060;-67
2022/11/23 09:16:03;;;;;;;0.00;0.00;;;10.00;99.90;;;;;;5022929;28;20052;-69
2022/11/23 09:18:29;;;;;;;0.00;0.00;;;10.00;99.90;;;;;;5014511;28;20055;-67
2022/11/23 09:20:55;;;;;;;0.00;0.00;;;10.20;99.90;;;;;;5014745;28;20082;-69
2022/11/23 09:23:21;;;;;;;;;;;10.20;99.90;;;;;;5030166;28;20049;-68
2022/11/23 09:25:48;;;;;;;0.00;0.00;;;10.30;99.90;;;;;;5019146;28;19909;-68
2022/11/23 09:28:15;;;;;;;0.00;0.00;;;10.40;99.90;;;;;;5019320;28;20487;-68
2022/11/23 09:30:41;;;;;;;0.00;0.00;;;10.60;99.90;;;;;;5016792;28;20038;-68
2022/11/23 09:33:07;;;;;;;0.00;0.00;;;10.60;99.90;;;;;;5025355;28;20034;-68
2022/11/23 09:35:33;;;;;;;0.00;0.00;;;10.60;99.90;;;;;;5018485;28;20091;-67
2022/11/23 09:37:59;;;;;;;0.00;0.00;;;10.40;99.90;;;;;;5018646;28;20076;-68
2022/11/23 09:40:30;;;;;;;;;;;10.30;99.90;;;;;;5019237;28;20030;-67
2022/11/23 09:43:27;;;;;;;0.00;0.00;;;10.10;99.90;;;;;;5025129;28;19909;-68
2022/11/23 09:45:55;;;;;;;0.00;0.00;;;9.90;99.90;;;;;;5020152;28;20138;-68
2022/11/23 09:49:08;;;;;;;0.00;0.00;;;9.90;99.90;;;;;;5014134;28;20021;-68
2022/11/23 09:51:37;;;;;;;0.00;0.00;;;9.90;99.90;;;;;;5019192;28;20125;-68
2022/11/23 09:54:15;;;;;;;0.00;0.00;;;10.00;99.90;;;;;;5024362;28;20029;-69
2022/11/23 09:56:44;;;;;;;0.00;0.00;;;10.20;99.90;;;;;;5025492;28;20447;-68
2022/11/23 09:59:21;;;;;;;0.00;0.00;;;10.20;99.90;;;;;;5032317;28;20113;-69
2022/11/23 10:01:47;;;;;;;0.00;0.00;;;10.40;99.90;;;;;;5023454;28;20545;-69
2022/11/23 10:04:17;;;;;;;0.00;0.00;;;10.60;99.90;;;;;;5026171;28;20061;-67
2022/11/23 10:06:43;;;;;;;0.00;0.00;;;10.70;99.90;;;;;;5009282;28;20468;-68
2022/11/23 10:09:42;;;;;;;0.00;0.00;;;10.70;99.90;;;;;;5007685;28;20605;-68
2022/11/23 10:12:17;;;;;;;0.00;0.00;;;10.80;99.90;;;;;;5003987;28;20045;-69
2022/11/23 10:14:52;;;;;;;0.00;0.00;;;10.90;99.90;;;;;;5019404;28;20459;-68
2022/11/23 10:17:23;;;;;;;0.00;0.00;;;11.00;99.90;;;;;;5005267;28;20081;-69
2022/11/23 10:20:20;;;;;;;0.00;0.00;;;10.90;99.90;;;;;;5018492;28;20033;-69
2022/11/23 10:22:54;;;;;;;0.00;0.00;;;10.90;99.90;;;;;;5013543;28;20084;-68
2022/11/23 10:25:21;;;;;;;0.00;0.00;;;10.90;99.90;;;;;;5013545;28;20029;-69
2022/11/23 10:27:49;;;;;;;0.00;0.00;;;10.80;99.90;;;;;;5009159;28;20032;-69
2022/11/23 10:30:17;;;;;;;0.00;0.00;;;10.90;99.90;;;;;;5048653;28;20045;-68
2022/11/23 10:33:01;;;;;;;0.00;0.00;;;10.80;99.90;;;;;;5018871;28;20021;-67
2022/11/23 10:35:29;;;;;;;0.00;0.00;;;10.70;99.90;;;;;;5015575;28;20028;-68
2022/11/23 10:38:11;;;;;;;0.00;0.00;;;10.60;99.90;;;;;;5016677;28;20045;-68
2022/11/23 10:40:42;;;;;;;0.00;0.00;;;10.60;99.90;;;;;;5015608;28;20060;-70
2022/11/23 10:43:19;;;;;;;0.00;0.00;;;10.50;99.90;;;;;;5024913;28;20081;-70
2022/11/23 10:45:45;;;;;;;0.00;0.00;;;10.50;99.90;;;;;;5015061;28;20018;-68
2022/11/23 10:48:11;;;;;;;;;;;10.30;99.90;;;;;;5019761;28;20117;-68
2022/11/23 10:50:39;;;;;;;0.00;0.00;;;10.30;99.90;;;;;;5029812;28;20375;-68
2022/11/23 10:53:07;;;;;;;0.00;0.00;;;10.30;99.90;;;;;;5016151;28;20041;-69
2022/11/23 10:55:56;;;;;;;0.00;0.00;;;10.40;99.90;;;;;;5022430;28;20415;-69
2022/11/23 10:58:44;;;;;;;0.00;0.00;;;10.30;99.90;;;;;;5006832;28;20101;-69
2022/11/23 11:01:23;;;;;;;0.00;0.00;;;10.50;99.90;;;;;;5017754;28;20401;-69
2022/11/23 11:03:53;;;;;;;0.00;0.00;;;10.50;99.90;;;;;;5011344;28;20033;-68
2022/11/23 11:06:29;;;;;;;0.00;0.00;;;10.60;99.90;;;;;;5011164;28;20025;-69
2022/11/23 11:08:55;;;;;;;0.00;0.00;;;10.70;99.90;;;;;;5028389;28;20036;-69
2022/11/23 11:11:27;;;;;;;0.00;0.00;;;10.70;99.90;;;;;;5012542;28;20017;-69
2022/11/23 11:14:15;;;;;;;0.00;0.00;;;10.80;99.90;;;;;;5005701;28;20030;-67
2022/11/23 11:16:52;;;;;;;0.00;0.00;;;10.70;99.90;;;;;;5007521;28;20375;-68
2022/11/23 11:19:28;;;;;;;;;;;10.80;99.90;;;;;;5010258;28;20117;-68
2022/11/23 11:21:55;;;;;;;0.00;0.00;;;10.90;99.90;;;;;;5014372;28;19920;-68
2022/11/23 11:24:32;;;;;;;0.00;0.00;;;10.90;99.90;;;;;;5015841;28;20030;-67
2022/11/23 11:26:59;;;;;;;;;;;10.90;99.90;;;;;;5011795;28;20022;-67
2022/11/23 11:29:35;;;;;;;0.00;0.00;;;11.00;99.90;;;;;;5009167;28;19975;-68
2022/11/23 11:32:13;;;;;;;0.00;0.00;;;11.00;99.90;;;;;;5018164;28;20423;-69
2022/11/23 11:34:53;;;;;;;0.00;0.00;;;11.10;99.90;;;;;;5023950;28;20034;-69
2022/11/23 11:37:25;;;;;;;0.00;0.00;;;11.10;99.90;;;;;;5001915;28;20034;-68
2022/11/23 11:39:55;;;;;;;0.00;0.00;;;11.20;99.90;;;;;;5014940;28;20037;-68
2022/11/23 11:42:37;;;;;;;0.00;0.00;;;11.20;99.90;;;;;;5018530;28;20018;-68
2022/11/23 11:45:06;;;;;;;0.00;0.00;;;11.20;99.90;;;;;;5010514;28;20029;-68
2022/11/23 11:47:48;;;;;;;0.00;0.00;;;11.30;99.90;;;;;;5007132;28;20030;-68
2022/11/23 11:50:29;;;;;;;0.00;0.00;;;11.30;99.90;;;;;;5010401;28;20042;-68
2022/11/23 11:53:01;;;;;;;0.00;0.00;;;11.40;99.90;;;;;;5014843;28;20049;-68
2022/11/23 11:55:43;;;;;;;0.00;0.00;;;11.40;99.90;;;;;;5025031;28;20025;-69
2022/11/23 11:58:15;;;;;;;0.00;0.00;;;11.40;99.90;;;;;;5021880;28;20100;-69
2022/11/23 12:00:41;;;;;;;0.00;0.00;;;11.40;99.90;;;;;;5027860;28;20095;-69
2022/11/23 12:03:19;;;;;;;0.00;0.00;;;11.40;99.90;;;;;;5012600;28;20030;-69
2022/11/23 12:05:48;;;;;;;0.00;0.00;;;11.40;99.90;;;;;;5010063;28;20352;-69
2022/11/23 12:08:45;;;;;;;0.00;0.00;;;11.50;99.90;;;;;;5013521;28;20029;-69
2022/11/23 12:11:12;;;;;;;0.00;0.00;;;11.50;99.90;;;;;;5012194;28;20052;-68
2022/11/23 12:13:41;;;;;;;0.00;0.00;;;11.50;99.90;;;;;;5025784;28;20066;-69
2022/11/23 12:16:49;;;;;;;0.00;0.00;;;11.60;99.90;;;;;;5015592;28;20029;-68
2022/11/23 12:19:34;;;;;;;0.00;0.00;;;11.60;99.90;;;;;;5010574;28;20483;-69
2022/11/23 12:22:02;;;;;;;0.00;0.00;;;11.60;99.90;;;;;;5015427;28;20113;-67
2022/11/23 12:24:49;;;;;;;0.00;0.00;;;11.60;99.90;;;;;;5031787;28;20029;-67
2022/11/23 12:27:36;;;;;;;0.00;0.00;;;11.60;99.90;;;;;;5016873;28;20079;-69
2022/11/23 12:30:34;;;;;;;0.00;0.00;;;11.70;99.90;;;;;;5027898;28;20027;-68
2022/11/23 12:33:06;;;;;;;0.00;0.00;;;11.70;99.90;;;;;;5020828;28;20645;-69
2022/11/23 12:35:51;;;;;;;0.00;0.00;;;11.70;99.90;;;;;;5030798;28;20095;-67
2022/11/23 12:38:29;;;;;;;0.00;0.00;;;11.90;99.90;;;;;;5020047;28;20037;-68
2022/11/23 12:41:01;;;;;;;0.00;0.00;;;11.90;99.90;;;;;;5010611;28;20132;-67
2022/11/23 12:43:57;;;;;;;0.00;0.00;;;11.90;99.90;;;;;;5014096;28;20427;-68
2022/11/23 12:46:39;;;;;;;0.00;0.00;;;12.00;99.90;;;;;;5012009;28;20130;-68
2022/11/23 12:49:32;;;;;;;0.00;0.00;;;11.90;99.90;;;;;;5024810;28;20033;-67
2022/11/23 12:52:22;;;;;;;0.00;0.00;;;11.90;99.90;;;;;;5023773;28;20029;-68
2022/11/23 12:54:53;;;;;;;0.00;0.00;;;11.80;99.90;;;;;;5025146;28;20029;-68
2022/11/23 12:57:48;;;;;;;0.00;0.00;;;11.80;99.90;;;;;;5016881;28;20530;-67
2022/11/23 13:00:19;;;;;;;0.00;0.00;;;11.90;99.90;;;;;;5007891;28;20352;-68
2022/11/23 13:02:57;;;;;;;0.00;0.00;;;11.80;99.90;;;;;;5015272;28;20022;-67
2022/11/23 13:05:49;;;;;;;0.00;0.00;;;11.80;99.90;;;;;;5014788;28;20026;-68
2022/11/23 13:08:26;;;;;;;0.00;0.00;;;11.70;99.90;;;;;;5009644;28;20097;-68
2022/11/23 13:10:52;;;;;;;;;;;11.60;99.90;;;;;;5013822;28;20396;-67